An Chang — VRFE3 — position and weather

sailwx.info

Track history (hours):
 
Tides and Currents Weather Stations Pressure Air Temp Water Temp Dewpoint Dewpoint Depression Visibility Wind Speed Wind Dir Waves Ship Positions

An Chang

Last reported at 2017-Aug-28 11:58 UTC. Time now 2017-Sep-22 19:15 UTC.
Position N 36°08' W 026°11'.
Warning: this ship's position is 25 days out of date.

Length 190 m; draft 10.4 m.

Type: Cargo ship. MMSI: 477218600.

Date/timePositionNaut miles runAvg speedWind from/ knotsBaromVisibWave heightAir tempDewpointWater temp
2017-Aug-28 11:58N 36°08' W 026°11'713.5
2017-Aug-28 11:27N 36°08' W 026°02'613.3
2017-Aug-28 11:00N 36°08' W 025°55'713.1
2017-Aug-28 10:30N 36°08' W 025°47'612.9
2017-Aug-28 10:00N 36°08' W 025°39'713.4
2017-Aug-28 09:30N 36°09' W 025°30'713.4
2017-Aug-28 09:00N 36°09' W 025°22'713.2
2017-Aug-28 08:30N 36°09' W 025°14'713.2
2017-Aug-28 08:00N 36°09' W 025°06'713.0
2017-Aug-28 07:30N 36°09' W 024°58'612.9
2017-Aug-28 07:00N 36°09' W 024°50'612.8
2017-Aug-28 06:30N 36°10' W 024°42'612.9
2017-Aug-28 06:00N 36°10' W 024°34'613.0
2017-Aug-28 05:30N 36°10' W 024°26'713.1
2017-Aug-28 05:00N 36°10' W 024°18'713.0
2017-Aug-28 04:30N 36°10' W 024°10'612.9
2017-Aug-28 04:00N 36°10' W 024°02'613.0
2017-Aug-28 03:30N 36°11' W 023°54'53512.8
2017-Aug-26 09:44N 36°14' W 012°50'512.9
2017-Aug-26 09:20N 36°14' W 012°44'1813.3
2017-Aug-26 07:59N 36°13' W 012°22'613.4
2017-Aug-26 07:30N 36°13' W 012°14'713.0
2017-Aug-26 07:00N 36°13' W 012°06'1313.0
2017-Aug-26 05:58N 36°13' W 011°49'613.4
2017-Aug-26 05:30N 36°12' W 011°42'713.4
2017-Aug-26 04:59N 36°12' W 011°33'613.3
2017-Aug-26 04:30N 36°12' W 011°25'713.5
2017-Aug-26 04:00N 36°11' W 011°17'713.3
2017-Aug-26 03:31N 36°11' W 011°09'713.3
2017-Aug-26 03:01N 36°11' W 011°00'713.3
2017-Aug-26 02:30N 36°11' W 010°52'713.8
2017-Aug-26 02:01N 36°10' W 010°44'713.5
2017-Aug-26 01:31N 36°10' W 010°35'713.3
2017-Aug-26 01:00N 36°10' W 010°27'713.3
2017-Aug-26 00:31N 36°10' W 010°19'713.3
2017-Aug-26 00:00N 36°09' W 010°10'612.9
2017-Aug-25 23:31N 36°09' W 010°03'613.0
2017-Aug-25 23:01N 36°09' W 009°55'713.1
2017-Aug-25 22:31N 36°08' W 009°46'713.0
2017-Aug-25 22:00N 36°08' W 009°38'613.0
2017-Aug-25 21:31N 36°07' W 009°30'713.1
2017-Aug-25 21:01N 36°07' W 009°22'612.9
2017-Aug-25 20:31N 36°06' W 009°14'612.8
2017-Aug-25 20:00N 36°06' W 009°06'613.0
2017-Aug-25 19:31N 36°05' W 008°58'712.9
2017-Aug-25 19:00N 36°05' W 008°50'612.8
2017-Aug-25 18:31N 36°04' W 008°43'612.8
2017-Aug-25 18:01N 36°04' W 008°35'713.1
2017-Aug-25 17:31N 36°03' W 008°27'713.1
2017-Aug-25 17:00N 36°03' W 008°18'612.8
2017-Aug-25 16:30N 36°02' W 008°11'713.0
2017-Aug-25 15:56N 36°02' W 008°01'613.3
2017-Aug-25 15:30N 36°01' W 007°54'713.6
2017-Aug-25 15:01N 36°01' W 007°46'1413.8
2017-Aug-25 14:01N 35°60' W 007°29'714.2
2017-Aug-25 13:30N 35°59' W 007°20'713.9
2017-Aug-25 13:00N 35°58' W 007°12'7812.6
2017-Aug-25 06:50N 35°58' W 005°36'1212.2
2017-Aug-25 05:51N 36°01' W 005°21'412.5
2017-Aug-25 05:30N 36°02' W 005°16'14612.9
2017-Aug-24 18:10N 36°26' W 002°17'212.1
2017-Aug-24 18:00N 36°26' W 002°14'611.4
2017-Aug-24 17:30N 36°28' W 002°08'711.6
2017-Aug-24 16:55N 36°29' W 001°59'2012.2
2017-Aug-24 15:17N 36°33' W 001°35'6 8.9
2017-Aug-24 14:38N 36°35' W 001°28'1 6.4
2017-Aug-24 14:30N 36°35' W 001°27'711.3
2017-Aug-24 13:53N 36°37' W 001°19'513.0
2017-Aug-24 13:29N 36°38' W 001°12'613.1
2017-Aug-24 13:00N 36°40' W 001°05'713.1
2017-Aug-24 12:26N 36°41' W 000°56'613.5
2017-Aug-24 12:00N 36°43' W 000°49'713.3
2017-Aug-24 11:27N 36°44' W 000°40'613.2
2017-Aug-24 10:58N 36°46' W 000°32'713.4
2017-Aug-24 10:27N 36°47' W 000°24'1913.0
2017-Aug-24 09:00N 36°52' W 000°01'613.1
2017-Aug-24 08:30N 36°54' E 000°07'713.2
2017-Aug-24 08:00N 36°55' E 000°15'613.0
2017-Aug-24 07:30N 36°57' E 000°23'713.0
2017-Aug-24 07:00N 36°58' E 000°31'613.1
2017-Aug-24 06:30N 36°60' E 000°39'713.0
2017-Aug-24 06:00N 37°02' E 000°47'713.1
2017-Aug-24 05:30N 37°03' E 000°55'612.8
2017-Aug-24 05:00N 37°05' E 001°02'713.4
2017-Aug-24 04:30N 37°06' E 001°11'1513.6
2017-Aug-24 03:24N 37°10' E 001°29'613.6
2017-Aug-24 03:00N 37°11' E 001°36'713.5
2017-Aug-24 02:30N 37°12' E 001°44'713.5
2017-Aug-24 02:00N 37°14' E 001°52'713.5
2017-Aug-24 01:30N 37°16' E 002°00'713.4
2017-Aug-24 01:00N 37°17' E 002°09'713.3
2017-Aug-24 00:30N 37°19' E 002°17'1113.2
2017-Aug-23 23:40N 37°22' E 002°30'413.3
2017-Aug-23 23:23N 37°22' E 002°35'513.3
2017-Aug-23 23:00N 37°24' E 002°41'713.2
2017-Aug-23 22:30N 37°25' E 002°49'713.3
2017-Aug-23 22:00N 37°27' E 002°57'3613.1
2017-Aug-23 19:16N 37°35' E 003°41'813.4
2017-Aug-23 18:42N 37°37' E 003°50'313.3
2017-Aug-23 18:30N 37°38' E 003°54'713.6
2017-Aug-23 18:00N 37°39' E 004°02'714.0
2017-Aug-23 17:30N 37°39' E 004°11'714.2
2017-Aug-23 17:00N 37°39' E 004°20'714.0
2017-Aug-23 16:30N 37°39' E 004°29'713.8
2017-Aug-23 16:00N 37°39' E 004°38'713.6
2017-Aug-23 15:30N 37°39' E 004°46'713.4
2017-Aug-23 15:00N 37°39' E 004°55'713.5
2017-Aug-23 14:30N 37°39' E 005°03'1613.5
2017-Aug-23 13:21N 37°39' E 005°23'513.4
2017-Aug-23 13:01N 37°39' E 005°29'2513.2
2017-Aug-23 11:09N 37°39' E 005°60'1313.2
2017-Aug-23 10:10N 37°39' E 006°16'1713.2
2017-Aug-23 08:55N 37°39' E 006°37'713.1
2017-Aug-23 08:23N 37°39' E 006°46'513.0
2017-Aug-23 08:00N 37°39' E 006°52'713.1
2017-Aug-23 07:30N 37°39' E 007°00'713.1
2017-Aug-23 07:00N 37°39' E 007°09'1713.0
2017-Aug-23 05:42N 37°39' E 007°30'213.0
2017-Aug-23 05:31N 37°39' E 007°33'713.1
2017-Aug-23 05:00N 37°39' E 007°41'2212.9
2017-Aug-23 03:18N 37°39' E 008°09'513.1
2017-Aug-23 02:56N 37°39' E 008°15'1113.2
2017-Aug-23 02:09N 37°39' E 008°28'2813.2
2017-Aug-23 00:02N 37°39' E 009°03'012.8
2017-Aug-23 00:00N 37°39' E 009°04'1213.0
2017-Aug-22 23:04N 37°39' E 009°19'113.1
2017-Aug-22 23:00N 37°39' E 009°21'613.3
2017-Aug-22 22:31N 37°39' E 009°29'713.8
2017-Aug-22 22:00N 37°39' E 009°37'1313.6
2017-Aug-22 21:04N 37°39' E 009°54'18012.8
2017-Aug-22 06:59N 36°44' E 013°29'913.1
2017-Aug-22 06:18N 36°41' E 013°39'413.4
2017-Aug-22 05:59N 36°40' E 013°44'613.4
2017-Aug-22 05:31N 36°39' E 013°52'713.2
2017-Aug-22 05:00N 36°37' E 014°00'713.0
2017-Aug-22 04:29N 36°35' E 014°08'612.8
2017-Aug-22 04:00N 36°33' E 014°16'612.6
2017-Aug-22 03:29N 36°31' E 014°23'612.4
2017-Aug-22 03:01N 36°30' E 014°30'712.4
2017-Aug-22 02:26N 36°28' E 014°39'42812.2
2017-Aug-20 15:28N 36°43' E 023°31'613.4
2017-Aug-20 15:00N 36°49' E 023°35'20713.4
2017-Aug-19 23:38N 39°47' E 025°50'213.3
2017-Aug-19 23:28N 39°49' E 025°50'189 9.9
2017-Aug-19 04:25N 41°25' E 029°24'0 1.0
2017-Aug-19 04:00N 41°26' E 029°24'1 0.9
2017-Aug-19 02:37N 41°26' E 029°22'4 0.7
2017-Aug-18 21:25N 41°29' E 029°18'0 0.3
2017-Aug-18 21:00N 41°29' E 029°18'0 0.3
2017-Aug-18 19:36N 41°29' E 029°18'0 0.4
2017-Aug-18 19:10N 41°29' E 029°18'0 0.5
2017-Aug-18 18:59N 41°29' E 029°18'0 0.4
2017-Aug-18 18:28N 41°29' E 029°18'1 0.5
2017-Aug-18 17:14N 41°30' E 029°18'2 0.6
2017-Aug-18 14:22N 41°32' E 029°17'1 0.8
2017-Aug-18 13:24N 41°32' E 029°16'  
Track history (hours):
 
Tides and Currents Weather Stations Pressure Air Temp Water Temp Dewpoint Dewpoint Depression Visibility Wind Speed Wind Dir Waves Ship Positions

An Chang

Last reported at 2017-Aug-28 11:58 UTC. Time now 2017-Sep-22 19:15 UTC.
Position N 36°08' W 026°11'.
Warning: this ship's position is 25 days out of date.

Length 190 m; draft 10.4 m.

Type: Cargo ship. MMSI: 477218600.

Date/timePositionNaut miles runAvg speedWind from/ knotsBaromVisibWave heightAir tempDewpointWater temp
2017-Aug-28 11:58N 36°08' W 026°11'713.5
2017-Aug-28 11:27N 36°08' W 026°02'613.3
2017-Aug-28 11:00N 36°08' W 025°55'713.1
2017-Aug-28 10:30N 36°08' W 025°47'612.9
2017-Aug-28 10:00N 36°08' W 025°39'713.4
2017-Aug-28 09:30N 36°09' W 025°30'713.4
2017-Aug-28 09:00N 36°09' W 025°22'713.2
2017-Aug-28 08:30N 36°09' W 025°14'713.2
2017-Aug-28 08:00N 36°09' W 025°06'713.0
2017-Aug-28 07:30N 36°09' W 024°58'612.9
2017-Aug-28 07:00N 36°09' W 024°50'612.8
2017-Aug-28 06:30N 36°10' W 024°42'612.9
2017-Aug-28 06:00N 36°10' W 024°34'613.0
2017-Aug-28 05:30N 36°10' W 024°26'713.1
2017-Aug-28 05:00N 36°10' W 024°18'713.0
2017-Aug-28 04:30N 36°10' W 024°10'612.9
2017-Aug-28 04:00N 36°10' W 024°02'613.0
2017-Aug-28 03:30N 36°11' W 023°54'53512.8
2017-Aug-26 09:44N 36°14' W 012°50'512.9
2017-Aug-26 09:20N 36°14' W 012°44'1813.3
2017-Aug-26 07:59N 36°13' W 012°22'613.4
2017-Aug-26 07:30N 36°13' W 012°14'713.0
2017-Aug-26 07:00N 36°13' W 012°06'1313.0
2017-Aug-26 05:58N 36°13' W 011°49'613.4
2017-Aug-26 05:30N 36°12' W 011°42'713.4
2017-Aug-26 04:59N 36°12' W 011°33'613.3
2017-Aug-26 04:30N 36°12' W 011°25'713.5
2017-Aug-26 04:00N 36°11' W 011°17'713.3
2017-Aug-26 03:31N 36°11' W 011°09'713.3
2017-Aug-26 03:01N 36°11' W 011°00'713.3
2017-Aug-26 02:30N 36°11' W 010°52'713.8
2017-Aug-26 02:01N 36°10' W 010°44'713.5
2017-Aug-26 01:31N 36°10' W 010°35'713.3
2017-Aug-26 01:00N 36°10' W 010°27'713.3
2017-Aug-26 00:31N 36°10' W 010°19'713.3
2017-Aug-26 00:00N 36°09' W 010°10'612.9
2017-Aug-25 23:31N 36°09' W 010°03'613.0
2017-Aug-25 23:01N 36°09' W 009°55'713.1
2017-Aug-25 22:31N 36°08' W 009°46'713.0
2017-Aug-25 22:00N 36°08' W 009°38'613.0
2017-Aug-25 21:31N 36°07' W 009°30'713.1
2017-Aug-25 21:01N 36°07' W 009°22'612.9
2017-Aug-25 20:31N 36°06' W 009°14'612.8
2017-Aug-25 20:00N 36°06' W 009°06'613.0
2017-Aug-25 19:31N 36°05' W 008°58'712.9
2017-Aug-25 19:00N 36°05' W 008°50'612.8
2017-Aug-25 18:31N 36°04' W 008°43'612.8
2017-Aug-25 18:01N 36°04' W 008°35'713.1
2017-Aug-25 17:31N 36°03' W 008°27'713.1
2017-Aug-25 17:00N 36°03' W 008°18'612.8
2017-Aug-25 16:30N 36°02' W 008°11'713.0
2017-Aug-25 15:56N 36°02' W 008°01'613.3
2017-Aug-25 15:30N 36°01' W 007°54'713.6
2017-Aug-25 15:01N 36°01' W 007°46'1413.8
2017-Aug-25 14:01N 35°60' W 007°29'714.2
2017-Aug-25 13:30N 35°59' W 007°20'713.9
2017-Aug-25 13:00N 35°58' W 007°12'7812.6
2017-Aug-25 06:50N 35°58' W 005°36'1212.2
2017-Aug-25 05:51N 36°01' W 005°21'412.5
2017-Aug-25 05:30N 36°02' W 005°16'14612.9
2017-Aug-24 18:10N 36°26' W 002°17'212.1
2017-Aug-24 18:00N 36°26' W 002°14'611.4
2017-Aug-24 17:30N 36°28' W 002°08'711.6
2017-Aug-24 16:55N 36°29' W 001°59'2012.2
2017-Aug-24 15:17N 36°33' W 001°35'6 8.9
2017-Aug-24 14:38N 36°35' W 001°28'1 6.4
2017-Aug-24 14:30N 36°35' W 001°27'711.3
2017-Aug-24 13:53N 36°37' W 001°19'513.0
2017-Aug-24 13:29N 36°38' W 001°12'613.1
2017-Aug-24 13:00N 36°40' W 001°05'713.1
2017-Aug-24 12:26N 36°41' W 000°56'613.5
2017-Aug-24 12:00N 36°43' W 000°49'713.3
2017-Aug-24 11:27N 36°44' W 000°40'613.2
2017-Aug-24 10:58N 36°46' W 000°32'713.4
2017-Aug-24 10:27N 36°47' W 000°24'1913.0
2017-Aug-24 09:00N 36°52' W 000°01'613.1
2017-Aug-24 08:30N 36°54' E 000°07'713.2
2017-Aug-24 08:00N 36°55' E 000°15'613.0
2017-Aug-24 07:30N 36°57' E 000°23'713.0
2017-Aug-24 07:00N 36°58' E 000°31'613.1
2017-Aug-24 06:30N 36°60' E 000°39'713.0
2017-Aug-24 06:00N 37°02' E 000°47'713.1
2017-Aug-24 05:30N 37°03' E 000°55'612.8
2017-Aug-24 05:00N 37°05' E 001°02'713.4
2017-Aug-24 04:30N 37°06' E 001°11'1513.6
2017-Aug-24 03:24N 37°10' E 001°29'613.6
2017-Aug-24 03:00N 37°11' E 001°36'713.5
2017-Aug-24 02:30N 37°12' E 001°44'713.5
2017-Aug-24 02:00N 37°14' E 001°52'713.5
2017-Aug-24 01:30N 37°16' E 002°00'713.4
2017-Aug-24 01:00N 37°17' E 002°09'713.3
2017-Aug-24 00:30N 37°19' E 002°17'1113.2
2017-Aug-23 23:40N 37°22' E 002°30'413.3
2017-Aug-23 23:23N 37°22' E 002°35'513.3
2017-Aug-23 23:00N 37°24' E 002°41'713.2
2017-Aug-23 22:30N 37°25' E 002°49'713.3
2017-Aug-23 22:00N 37°27' E 002°57'3613.1
2017-Aug-23 19:16N 37°35' E 003°41'813.4
2017-Aug-23 18:42N 37°37' E 003°50'313.3
2017-Aug-23 18:30N 37°38' E 003°54'713.6
2017-Aug-23 18:00N 37°39' E 004°02'714.0
2017-Aug-23 17:30N 37°39' E 004°11'714.2
2017-Aug-23 17:00N 37°39' E 004°20'714.0
2017-Aug-23 16:30N 37°39' E 004°29'713.8
2017-Aug-23 16:00N 37°39' E 004°38'713.6
2017-Aug-23 15:30N 37°39' E 004°46'713.4
2017-Aug-23 15:00N 37°39' E 004°55'713.5
2017-Aug-23 14:30N 37°39' E 005°03'1613.5
2017-Aug-23 13:21N 37°39' E 005°23'513.4
2017-Aug-23 13:01N 37°39' E 005°29'2513.2
2017-Aug-23 11:09N 37°39' E 005°60'1313.2
2017-Aug-23 10:10N 37°39' E 006°16'1713.2
2017-Aug-23 08:55N 37°39' E 006°37'713.1
2017-Aug-23 08:23N 37°39' E 006°46'513.0
2017-Aug-23 08:00N 37°39' E 006°52'713.1
2017-Aug-23 07:30N 37°39' E 007°00'713.1
2017-Aug-23 07:00N 37°39' E 007°09'1713.0
2017-Aug-23 05:42N 37°39' E 007°30'213.0
2017-Aug-23 05:31N 37°39' E 007°33'713.1
2017-Aug-23 05:00N 37°39' E 007°41'2212.9
2017-Aug-23 03:18N 37°39' E 008°09'513.1
2017-Aug-23 02:56N 37°39' E 008°15'1113.2
2017-Aug-23 02:09N 37°39' E 008°28'2813.2
2017-Aug-23 00:02N 37°39' E 009°03'012.8
2017-Aug-23 00:00N 37°39' E 009°04'1213.0
2017-Aug-22 23:04N 37°39' E 009°19'113.1
2017-Aug-22 23:00N 37°39' E 009°21'613.3
2017-Aug-22 22:31N 37°39' E 009°29'713.8
2017-Aug-22 22:00N 37°39' E 009°37'1313.6
2017-Aug-22 21:04N 37°39' E 009°54'18012.8
2017-Aug-22 06:59N 36°44' E 013°29'913.1
2017-Aug-22 06:18N 36°41' E 013°39'413.4
2017-Aug-22 05:59N 36°40' E 013°44'613.4
2017-Aug-22 05:31N 36°39' E 013°52'713.2
2017-Aug-22 05:00N 36°37' E 014°00'713.0
2017-Aug-22 04:29N 36°35' E 014°08'612.8
2017-Aug-22 04:00N 36°33' E 014°16'612.6
2017-Aug-22 03:29N 36°31' E 014°23'612.4
2017-Aug-22 03:01N 36°30' E 014°30'712.4
2017-Aug-22 02:26N 36°28' E 014°39'42812.2
2017-Aug-20 15:28N 36°43' E 023°31'613.4
2017-Aug-20 15:00N 36°49' E 023°35'20713.4
2017-Aug-19 23:38N 39°47' E 025°50'213.3
2017-Aug-19 23:28N 39°49' E 025°50'189 9.9
2017-Aug-19 04:25N 41°25' E 029°24'0 1.0
2017-Aug-19 04:00N 41°26' E 029°24'1 0.9
2017-Aug-19 02:37N 41°26' E 029°22'4 0.7
2017-Aug-18 21:25N 41°29' E 029°18'0 0.3
2017-Aug-18 21:00N 41°29' E 029°18'0 0.3
2017-Aug-18 19:36N 41°29' E 029°18'0 0.4
2017-Aug-18 19:10N 41°29' E 029°18'0 0.5
2017-Aug-18 18:59N 41°29' E 029°18'0 0.4
2017-Aug-18 18:28N 41°29' E 029°18'1 0.5
2017-Aug-18 17:14N 41°30' E 029°18'2 0.6
2017-Aug-18 14:22N 41°32' E 029°17'1 0.8
2017-Aug-18 13:24N 41°32' E 029°16'  

Dump ship's entire track history